sensor_id;sensor_type;location;lat;lon;timestamp;P1;durP1;ratioP1;P2;durP2;ratioP2
72676;SDS011;60755;51.374;10.662;2022-12-18T00:01:32;33.40;;;16.07;;
72676;SDS011;60755;51.374;10.662;2022-12-18T00:04:02;37.00;;;16.53;;
72676;SDS011;60755;51.374;10.662;2022-12-18T00:06:33;36.50;;;16.87;;
72676;SDS011;60755;51.374;10.662;2022-12-18T00:09:02;30.33;;;15.13;;
72676;SDS011;60755;51.374;10.662;2022-12-18T00:11:30;29.83;;;14.93;;
72676;SDS011;60755;51.374;10.662;2022-12-18T00:13:59;29.83;;;13.63;;
72676;SDS011;60755;51.374;10.662;2022-12-18T00:16:27;24.67;;;13.70;;
72676;SDS011;60755;51.374;10.662;2022-12-18T00:18:55;22.80;;;13.43;;
72676;SDS011;60755;51.374;10.662;2022-12-18T00:21:27;25.67;;;12.57;;
72676;SDS011;60755;51.374;10.662;2022-12-18T00:23:55;25.57;;;14.07;;
72676;SDS011;60755;51.374;10.662;2022-12-18T00:26:22;24.67;;;13.40;;
72676;SDS011;60755;51.374;10.662;2022-12-18T00:28:52;26.77;;;13.73;;
72676;SDS011;60755;51.374;10.662;2022-12-18T00:31:23;26.47;;;13.27;;
72676;SDS011;60755;51.374;10.662;2022-12-18T00:33:50;34.23;;;15.43;;
72676;SDS011;60755;51.374;10.662;2022-12-18T00:36:18;28.83;;;15.93;;
72676;SDS011;60755;51.374;10.662;2022-12-18T00:38:47;29.00;;;15.10;;
72676;SDS011;60755;51.374;10.662;2022-12-18T00:41:15;24.30;;;14.53;;
72676;SDS011;60755;51.374;10.662;2022-12-18T00:44:05;22.30;;;12.37;;
72676;SDS011;60755;51.374;10.662;2022-12-18T00:46:34;21.20;;;11.43;;
72676;SDS011;60755;51.374;10.662;2022-12-18T00:49:01;25.00;;;12.00;;
72676;SDS011;60755;51.374;10.662;2022-12-18T00:51:29;21.30;;;11.07;;
72676;SDS011;60755;51.374;10.662;2022-12-18T00:53:56;22.00;;;11.13;;
72676;SDS011;60755;51.374;10.662;2022-12-18T00:56:23;21.23;;;11.07;;
72676;SDS011;60755;51.374;10.662;2022-12-18T00:58:51;21.20;;;11.57;;
72676;SDS011;60755;51.374;10.662;2022-12-18T01:01:18;20.83;;;11.87;;
72676;SDS011;60755;51.374;10.662;2022-12-18T01:03:46;22.43;;;11.33;;
72676;SDS011;60755;51.374;10.662;2022-12-18T01:06:14;24.93;;;12.17;;
72676;SDS011;60755;51.374;10.662;2022-12-18T01:08:43;24.20;;;12.20;;
72676;SDS011;60755;51.374;10.662;2022-12-18T01:11:11;20.67;;;11.07;;
72676;SDS011;60755;51.374;10.662;2022-12-18T01:13:39;21.13;;;11.37;;
72676;SDS011;60755;51.374;10.662;2022-12-18T01:16:07;19.87;;;10.37;;
72676;SDS011;60755;51.374;10.662;2022-12-18T01:18:37;18.00;;;10.33;;
72676;SDS011;60755;51.374;10.662;2022-12-18T01:21:07;27.10;;;11.40;;
72676;SDS011;60755;51.374;10.662;2022-12-18T01:23:35;18.27;;;10.10;;
72676;SDS011;60755;51.374;10.662;2022-12-18T01:26:04;23.60;;;11.67;;
72676;SDS011;60755;51.374;10.662;2022-12-18T01:28:32;24.73;;;10.83;;
72676;SDS011;60755;51.374;10.662;2022-12-18T01:31:08;22.40;;;11.23;;
72676;SDS011;60755;51.374;10.662;2022-12-18T01:33:39;21.03;;;10.57;;
72676;SDS011;60755;51.374;10.662;2022-12-18T01:36:08;17.70;;;10.07;;
72676;SDS011;60755;51.374;10.662;2022-12-18T01:38:41;18.07;;;9.47;;
72676;SDS011;60755;51.374;10.662;2022-12-18T01:41:08;17.10;;;10.20;;
72676;SDS011;60755;51.374;10.662;2022-12-18T01:43:47;17.47;;;9.57;;
72676;SDS011;60755;51.374;10.662;2022-12-18T01:46:16;16.77;;;8.80;;
72676;SDS011;60755;51.374;10.662;2022-12-18T01:48:45;16.53;;;9.30;;
72676;SDS011;60755;51.374;10.662;2022-12-18T01:51:16;21.97;;;10.03;;
72676;SDS011;60755;51.374;10.662;2022-12-18T01:53:44;26.93;;;11.70;;
72676;SDS011;60755;51.374;10.662;2022-12-18T01:56:13;20.97;;;10.97;;
72676;SDS011;60755;51.374;10.662;2022-12-18T01:58:46;22.47;;;10.50;;
72676;SDS011;60755;51.374;10.662;2022-12-18T02:01:18;16.67;;;9.70;;
72676;SDS011;60755;51.374;10.662;2022-12-18T02:03:46;22.03;;;11.50;;
72676;SDS011;60755;51.374;10.662;2022-12-18T02:06:16;20.87;;;10.53;;
72676;SDS011;60755;51.374;10.662;2022-12-18T02:08:53;21.23;;;10.03;;
72676;SDS011;60755;51.374;10.662;2022-12-18T02:11:32;19.53;;;9.90;;
72676;SDS011;60755;51.374;10.662;2022-12-18T02:14:08;17.47;;;10.33;;
72676;SDS011;60755;51.374;10.662;2022-12-18T02:16:45;20.93;;;10.97;;
72676;SDS011;60755;51.374;10.662;2022-12-18T02:19:23;19.67;;;10.53;;
72676;SDS011;60755;51.374;10.662;2022-12-18T02:22:10;21.50;;;10.40;;
72676;SDS011;60755;51.374;10.662;2022-12-18T02:24:47;17.53;;;9.80;;
72676;SDS011;60755;51.374;10.662;2022-12-18T02:27:25;17.27;;;9.70;;
72676;SDS011;60755;51.374;10.662;2022-12-18T02:29:54;18.20;;;9.60;;
72676;SDS011;60755;51.374;10.662;2022-12-18T02:32:25;15.03;;;9.17;;
72676;SDS011;60755;51.374;10.662;2022-12-18T02:34:55;16.90;;;9.43;;
72676;SDS011;60755;51.374;10.662;2022-12-18T02:37:24;18.20;;;8.80;;
72676;SDS011;60755;51.374;10.662;2022-12-18T02:39:55;14.53;;;8.40;;
72676;SDS011;60755;51.374;10.662;2022-12-18T02:42:26;17.10;;;9.03;;
72676;SDS011;60755;51.374;10.662;2022-12-18T02:44:54;19.07;;;8.80;;
72676;SDS011;60755;51.374;10.662;2022-12-18T02:47:22;15.93;;;8.87;;
72676;SDS011;60755;51.374;10.662;2022-12-18T02:49:55;17.30;;;8.37;;
72676;SDS011;60755;51.374;10.662;2022-12-18T02:52:30;15.97;;;9.33;;
72676;SDS011;60755;51.374;10.662;2022-12-18T02:55:06;15.80;;;9.17;;
72676;SDS011;60755;51.374;10.662;2022-12-18T02:57:44;18.03;;;9.37;;
72676;SDS011;60755;51.374;10.662;2022-12-18T03:00:16;14.60;;;8.60;;
72676;SDS011;60755;51.374;10.662;2022-12-18T03:02:47;15.87;;;8.70;;
72676;SDS011;60755;51.374;10.662;2022-12-18T03:05:22;15.20;;;9.07;;
72676;SDS011;60755;51.374;10.662;2022-12-18T03:07:57;17.07;;;8.60;;
72676;SDS011;60755;51.374;10.662;2022-12-18T03:10:27;15.40;;;8.57;;
72676;SDS011;60755;51.374;10.662;2022-12-18T03:13:00;15.40;;;8.70;;
72676;SDS011;60755;51.374;10.662;2022-12-18T03:15:31;16.00;;;8.23;;
72676;SDS011;60755;51.374;10.662;2022-12-18T03:18:02;17.40;;;8.97;;
72676;SDS011;60755;51.374;10.662;2022-12-18T03:20:34;22.63;;;9.03;;
72676;SDS011;60755;51.374;10.662;2022-12-18T03:23:04;16.80;;;8.83;;
72676;SDS011;60755;51.374;10.662;2022-12-18T03:25:36;18.27;;;9.20;;
72676;SDS011;60755;51.374;10.662;2022-12-18T03:28:09;15.47;;;9.23;;
72676;SDS011;60755;51.374;10.662;2022-12-18T03:30:40;17.63;;;9.27;;
72676;SDS011;60755;51.374;10.662;2022-12-18T03:33:10;23.00;;;11.63;;
72676;SDS011;60755;51.374;10.662;2022-12-18T03:35:41;21.00;;;10.60;;
72676;SDS011;60755;51.374;10.662;2022-12-18T03:38:09;21.30;;;11.37;;
72676;SDS011;60755;51.374;10.662;2022-12-18T03:40:41;20.00;;;10.50;;
72676;SDS011;60755;51.374;10.662;2022-12-18T03:43:16;24.63;;;11.17;;
72676;SDS011;60755;51.374;10.662;2022-12-18T03:45:48;21.40;;;10.77;;
72676;SDS011;60755;51.374;10.662;2022-12-18T03:48:23;19.53;;;9.80;;
72676;SDS011;60755;51.374;10.662;2022-12-18T03:50:56;20.10;;;10.37;;
72676;SDS011;60755;51.374;10.662;2022-12-18T03:53:29;18.63;;;9.80;;
72676;SDS011;60755;51.374;10.662;2022-12-18T03:56:02;19.67;;;10.13;;
72676;SDS011;60755;51.374;10.662;2022-12-18T03:58:32;20.63;;;9.63;;
72676;SDS011;60755;51.374;10.662;2022-12-18T04:01:05;19.83;;;10.63;;
72676;SDS011;60755;51.374;10.662;2022-12-18T04:03:34;17.57;;;9.97;;
72676;SDS011;60755;51.374;10.662;2022-12-18T04:06:02;20.63;;;11.03;;
72676;SDS011;60755;51.374;10.662;2022-12-18T04:08:32;18.73;;;9.73;;
72676;SDS011;60755;51.374;10.662;2022-12-18T04:11:00;20.90;;;10.20;;
72676;SDS011;60755;51.374;10.662;2022-12-18T04:13:29;15.87;;;9.10;;
72676;SDS011;60755;51.374;10.662;2022-12-18T04:16:00;17.80;;;9.67;;
72676;SDS011;60755;51.374;10.662;2022-12-18T04:18:27;20.37;;;10.17;;
72676;SDS011;60755;51.374;10.662;2022-12-18T04:20:54;20.13;;;9.90;;
72676;SDS011;60755;51.374;10.662;2022-12-18T04:23:22;17.63;;;8.30;;
72676;SDS011;60755;51.374;10.662;2022-12-18T04:25:49;17.27;;;8.80;;
72676;SDS011;60755;51.374;10.662;2022-12-18T04:28:16;16.83;;;9.03;;
72676;SDS011;60755;51.374;10.662;2022-12-18T04:30:43;18.93;;;8.27;;
72676;SDS011;60755;51.374;10.662;2022-12-18T04:33:18;17.30;;;8.73;;
72676;SDS011;60755;51.374;10.662;2022-12-18T04:35:55;18.63;;;8.57;;
72676;SDS011;60755;51.374;10.662;2022-12-18T04:38:22;19.63;;;8.80;;
72676;SDS011;60755;51.374;10.662;2022-12-18T04:40:49;17.17;;;9.43;;
72676;SDS011;60755;51.374;10.662;2022-12-18T04:43:16;24.97;;;9.77;;
72676;SDS011;60755;51.374;10.662;2022-12-18T04:45:43;15.87;;;8.80;;
72676;SDS011;60755;51.374;10.662;2022-12-18T04:48:11;20.27;;;9.50;;
72676;SDS011;60755;51.374;10.662;2022-12-18T04:50:39;19.30;;;9.37;;
72676;SDS011;60755;51.374;10.662;2022-12-18T04:53:06;18.53;;;9.13;;
72676;SDS011;60755;51.374;10.662;2022-12-18T04:55:33;16.50;;;8.63;;
72676;SDS011;60755;51.374;10.662;2022-12-18T04:58:00;18.13;;;8.87;;
72676;SDS011;60755;51.374;10.662;2022-12-18T05:00:27;17.33;;;8.00;;
72676;SDS011;60755;51.374;10.662;2022-12-18T05:02:55;21.90;;;8.20;;
72676;SDS011;60755;51.374;10.662;2022-12-18T05:05:22;16.93;;;9.57;;
72676;SDS011;60755;51.374;10.662;2022-12-18T05:07:51;19.97;;;9.00;;
72676;SDS011;60755;51.374;10.662;2022-12-18T05:10:18;21.37;;;9.77;;
72676;SDS011;60755;51.374;10.662;2022-12-18T05:12:45;19.30;;;8.97;;
72676;SDS011;60755;51.374;10.662;2022-12-18T05:15:26;16.53;;;8.97;;
72676;SDS011;60755;51.374;10.662;2022-12-18T05:17:54;15.33;;;8.23;;
72676;SDS011;60755;51.374;10.662;2022-12-18T05:20:21;15.57;;;8.57;;
72676;SDS011;60755;51.374;10.662;2022-12-18T05:22:48;17.73;;;9.17;;
72676;SDS011;60755;51.374;10.662;2022-12-18T05:25:17;18.13;;;8.50;;
72676;SDS011;60755;51.374;10.662;2022-12-18T05:27:44;20.63;;;9.07;;
72676;SDS011;60755;51.374;10.662;2022-12-18T05:30:12;16.97;;;9.07;;
72676;SDS011;60755;51.374;10.662;2022-12-18T05:32:41;17.30;;;8.13;;
72676;SDS011;60755;51.374;10.662;2022-12-18T05:35:09;12.80;;;8.37;;
72676;SDS011;60755;51.374;10.662;2022-12-18T05:37:37;15.63;;;8.23;;
72676;SDS011;60755;51.374;10.662;2022-12-18T05:40:07;19.53;;;8.50;;
72676;SDS011;60755;51.374;10.662;2022-12-18T05:42:34;17.00;;;8.50;;
72676;SDS011;60755;51.374;10.662;2022-12-18T05:45:01;17.17;;;8.40;;
72676;SDS011;60755;51.374;10.662;2022-12-18T05:47:29;17.67;;;9.33;;
72676;SDS011;60755;51.374;10.662;2022-12-18T05:49:56;15.43;;;8.40;;
72676;SDS011;60755;51.374;10.662;2022-12-18T05:52:23;17.67;;;8.57;;
72676;SDS011;60755;51.374;10.662;2022-12-18T05:54:51;17.07;;;8.30;;
72676;SDS011;60755;51.374;10.662;2022-12-18T05:57:19;15.70;;;8.80;;
72676;SDS011;60755;51.374;10.662;2022-12-18T05:59:47;17.07;;;9.00;;
72676;SDS011;60755;51.374;10.662;2022-12-18T06:02:14;19.20;;;9.73;;
72676;SDS011;60755;51.374;10.662;2022-12-18T06:04:41;18.33;;;9.43;;
72676;SDS011;60755;51.374;10.662;2022-12-18T06:07:08;15.27;;;8.40;;
72676;SDS011;60755;51.374;10.662;2022-12-18T06:09:35;20.30;;;9.07;;
72676;SDS011;60755;51.374;10.662;2022-12-18T06:12:02;18.03;;;8.43;;
72676;SDS011;60755;51.374;10.662;2022-12-18T06:14:31;21.17;;;8.93;;
72676;SDS011;60755;51.374;10.662;2022-12-18T06:16:58;15.63;;;9.23;;
72676;SDS011;60755;51.374;10.662;2022-12-18T06:19:25;17.80;;;9.60;;
72676;SDS011;60755;51.374;10.662;2022-12-18T06:21:52;14.90;;;8.37;;
72676;SDS011;60755;51.374;10.662;2022-12-18T06:24:20;18.57;;;8.40;;
72676;SDS011;60755;51.374;10.662;2022-12-18T06:26:47;19.40;;;9.50;;
72676;SDS011;60755;51.374;10.662;2022-12-18T06:29:14;18.37;;;9.53;;
72676;SDS011;60755;51.374;10.662;2022-12-18T06:31:42;20.93;;;9.70;;
72676;SDS011;60755;51.374;10.662;2022-12-18T06:34:10;22.87;;;10.57;;
72676;SDS011;60755;51.374;10.662;2022-12-18T06:36:37;48.23;;;18.67;;
72676;SDS011;60755;51.374;10.662;2022-12-18T06:39:04;37.87;;;16.13;;
72676;SDS011;60755;51.374;10.662;2022-12-18T06:41:31;49.17;;;19.73;;
72676;SDS011;60755;51.374;10.662;2022-12-18T06:43:58;49.47;;;19.13;;
72676;SDS011;60755;51.374;10.662;2022-12-18T06:46:25;47.07;;;18.63;;
72676;SDS011;60755;51.374;10.662;2022-12-18T06:48:55;46.30;;;19.53;;
72676;SDS011;60755;51.374;10.662;2022-12-18T06:51:23;80.73;;;31.17;;
72676;SDS011;60755;51.374;10.662;2022-12-18T06:53:50;59.83;;;24.43;;
72676;SDS011;60755;51.374;10.662;2022-12-18T06:56:17;60.57;;;24.87;;
72676;SDS011;60755;51.374;10.662;2022-12-18T06:58:44;52.77;;;21.40;;
72676;SDS011;60755;51.374;10.662;2022-12-18T07:01:12;49.07;;;19.73;;
72676;SDS011;60755;51.374;10.662;2022-12-18T07:03:40;42.80;;;17.97;;
72676;SDS011;60755;51.374;10.662;2022-12-18T07:06:14;35.63;;;16.00;;
72676;SDS011;60755;51.374;10.662;2022-12-18T07:08:42;37.83;;;16.13;;
72676;SDS011;60755;51.374;10.662;2022-12-18T07:11:10;36.83;;;16.33;;
72676;SDS011;60755;51.374;10.662;2022-12-18T07:13:37;34.63;;;15.93;;
72676;SDS011;60755;51.374;10.662;2022-12-18T07:16:05;25.53;;;12.00;;
72676;SDS011;60755;51.374;10.662;2022-12-18T07:18:34;26.80;;;12.13;;
72676;SDS011;60755;51.374;10.662;2022-12-18T07:21:05;31.60;;;13.10;;
72676;SDS011;60755;51.374;10.662;2022-12-18T07:23:35;39.10;;;16.37;;
72676;SDS011;60755;51.374;10.662;2022-12-18T07:26:03;40.20;;;16.63;;
72676;SDS011;60755;51.374;10.662;2022-12-18T07:28:31;39.67;;;16.63;;
72676;SDS011;60755;51.374;10.662;2022-12-18T07:31:02;34.37;;;16.17;;
72676;SDS011;60755;51.374;10.662;2022-12-18T07:33:30;33.80;;;16.00;;
72676;SDS011;60755;51.374;10.662;2022-12-18T07:35:58;43.47;;;18.70;;
72676;SDS011;60755;51.374;10.662;2022-12-18T07:38:25;42.53;;;16.77;;
72676;SDS011;60755;51.374;10.662;2022-12-18T07:40:53;38.53;;;16.33;;
72676;SDS011;60755;51.374;10.662;2022-12-18T07:43:21;32.33;;;16.90;;
72676;SDS011;60755;51.374;10.662;2022-12-18T07:45:48;33.83;;;15.57;;
72676;SDS011;60755;51.374;10.662;2022-12-18T07:48:16;42.97;;;17.47;;
72676;SDS011;60755;51.374;10.662;2022-12-18T07:50:43;36.63;;;16.90;;
72676;SDS011;60755;51.374;10.662;2022-12-18T07:53:10;39.60;;;18.60;;
72676;SDS011;60755;51.374;10.662;2022-12-18T07:55:37;36.20;;;17.23;;
72676;SDS011;60755;51.374;10.662;2022-12-18T07:58:06;41.17;;;18.13;;
72676;SDS011;60755;51.374;10.662;2022-12-18T08:00:33;50.80;;;22.67;;
72676;SDS011;60755;51.374;10.662;2022-12-18T08:03:01;51.57;;;22.60;;
72676;SDS011;60755;51.374;10.662;2022-12-18T08:05:28;57.53;;;25.00;;
72676;SDS011;60755;51.374;10.662;2022-12-18T08:07:55;56.17;;;26.77;;
72676;SDS011;60755;51.374;10.662;2022-12-18T08:10:22;72.40;;;31.77;;
72676;SDS011;60755;51.374;10.662;2022-12-18T08:12:50;80.80;;;35.03;;
72676;SDS011;60755;51.374;10.662;2022-12-18T08:15:19;69.07;;;32.87;;
72676;SDS011;60755;51.374;10.662;2022-12-18T08:17:46;71.70;;;31.93;;
72676;SDS011;60755;51.374;10.662;2022-12-18T08:20:13;81.13;;;34.10;;
72676;SDS011;60755;51.374;10.662;2022-12-18T08:22:41;82.57;;;37.60;;
72676;SDS011;60755;51.374;10.662;2022-12-18T08:25:08;75.47;;;33.57;;
72676;SDS011;60755;51.374;10.662;2022-12-18T08:27:36;261.07;;;85.00;;
72676;SDS011;60755;51.374;10.662;2022-12-18T08:30:03;289.57;;;102.60;;
72676;SDS011;60755;51.374;10.662;2022-12-18T08:32:32;267.97;;;98.00;;
72676;SDS011;60755;51.374;10.662;2022-12-18T08:35:00;165.67;;;63.50;;
72676;SDS011;60755;51.374;10.662;2022-12-18T08:37:27;101.13;;;40.87;;
72676;SDS011;60755;51.374;10.662;2022-12-18T08:39:54;120.47;;;47.90;;
72676;SDS011;60755;51.374;10.662;2022-12-18T08:42:21;117.97;;;49.47;;
72676;SDS011;60755;51.374;10.662;2022-12-18T08:45:07;136.63;;;58.07;;
72676;SDS011;60755;51.374;10.662;2022-12-18T08:47:36;133.10;;;56.53;;
72676;SDS011;60755;51.374;10.662;2022-12-18T08:50:03;124.73;;;53.43;;
72676;SDS011;60755;51.374;10.662;2022-12-18T08:52:31;122.63;;;52.87;;
72676;SDS011;60755;51.374;10.662;2022-12-18T08:54:59;105.33;;;45.63;;
72676;SDS011;60755;51.374;10.662;2022-12-18T08:57:26;101.47;;;47.73;;
72676;SDS011;60755;51.374;10.662;2022-12-18T08:59:53;140.27;;;61.03;;
72676;SDS011;60755;51.374;10.662;2022-12-18T09:02:20;101.53;;;47.43;;
72676;SDS011;60755;51.374;10.662;2022-12-18T09:04:49;77.43;;;36.67;;
72676;SDS011;60755;51.374;10.662;2022-12-18T09:07:16;98.03;;;43.57;;
72676;SDS011;60755;51.374;10.662;2022-12-18T09:09:43;113.97;;;47.50;;
72676;SDS011;60755;51.374;10.662;2022-12-18T09:12:10;122.70;;;55.57;;
72676;SDS011;60755;51.374;10.662;2022-12-18T09:14:37;75.70;;;33.60;;
72676;SDS011;60755;51.374;10.662;2022-12-18T09:17:04;35.70;;;18.27;;
72676;SDS011;60755;51.374;10.662;2022-12-18T09:19:31;30.30;;;15.63;;
72676;SDS011;60755;51.374;10.662;2022-12-18T09:22:00;37.20;;;17.87;;
72676;SDS011;60755;51.374;10.662;2022-12-18T09:24:27;35.77;;;17.73;;
72676;SDS011;60755;51.374;10.662;2022-12-18T09:26:54;40.43;;;18.57;;
72676;SDS011;60755;51.374;10.662;2022-12-18T09:29:21;33.93;;;15.83;;
72676;SDS011;60755;51.374;10.662;2022-12-18T09:31:48;29.27;;;14.90;;
72676;SDS011;60755;51.374;10.662;2022-12-18T09:34:16;20.40;;;11.63;;
72676;SDS011;60755;51.374;10.662;2022-12-18T09:36:43;22.60;;;11.90;;
72676;SDS011;60755;51.374;10.662;2022-12-18T09:39:12;25.00;;;13.20;;
72676;SDS011;60755;51.374;10.662;2022-12-18T09:41:41;27.30;;;14.93;;
72676;SDS011;60755;51.374;10.662;2022-12-18T09:44:14;32.93;;;18.40;;
72676;SDS011;60755;51.374;10.662;2022-12-18T09:46:47;41.27;;;21.40;;
72676;SDS011;60755;51.374;10.662;2022-12-18T09:49:19;43.90;;;24.07;;
72676;SDS011;60755;51.374;10.662;2022-12-18T09:51:53;54.53;;;27.37;;
72676;SDS011;60755;51.374;10.662;2022-12-18T09:54:26;57.33;;;29.30;;
72676;SDS011;60755;51.374;10.662;2022-12-18T09:57:00;121.90;;;50.23;;
72676;SDS011;60755;51.374;10.662;2022-12-18T09:59:29;107.90;;;46.03;;
72676;SDS011;60755;51.374;10.662;2022-12-18T10:02:02;67.47;;;31.87;;
72676;SDS011;60755;51.374;10.662;2022-12-18T10:04:42;39.30;;;19.70;;
72676;SDS011;60755;51.374;10.662;2022-12-18T10:07:12;43.97;;;21.30;;
72676;SDS011;60755;51.374;10.662;2022-12-18T10:09:45;52.93;;;26.57;;
72676;SDS011;60755;51.374;10.662;2022-12-18T10:12:22;34.20;;;18.17;;
72676;SDS011;60755;51.374;10.662;2022-12-18T10:14:58;40.60;;;18.30;;
72676;SDS011;60755;51.374;10.662;2022-12-18T10:17:33;61.57;;;28.80;;
72676;SDS011;60755;51.374;10.662;2022-12-18T10:20:10;107.63;;;44.57;;
72676;SDS011;60755;51.374;10.662;2022-12-18T10:22:43;32.50;;;17.17;;
72676;SDS011;60755;51.374;10.662;2022-12-18T10:25:23;35.90;;;20.57;;
72676;SDS011;60755;51.374;10.662;2022-12-18T10:27:56;76.87;;;25.47;;
72676;SDS011;60755;51.374;10.662;2022-12-18T10:30:28;71.23;;;30.10;;
72676;SDS011;60755;51.374;10.662;2022-12-18T10:32:58;30.03;;;16.13;;
72676;SDS011;60755;51.374;10.662;2022-12-18T10:35:27;27.03;;;14.00;;
72676;SDS011;60755;51.374;10.662;2022-12-18T10:38:05;22.37;;;12.97;;
72676;SDS011;60755;51.374;10.662;2022-12-18T10:40:47;26.23;;;13.20;;
72676;SDS011;60755;51.374;10.662;2022-12-18T10:43:16;32.53;;;18.03;;
72676;SDS011;60755;51.374;10.662;2022-12-18T10:45:57;31.90;;;19.80;;
72676;SDS011;60755;51.374;10.662;2022-12-18T10:48:31;24.27;;;13.87;;
72676;SDS011;60755;51.374;10.662;2022-12-18T10:51:00;24.70;;;14.17;;
72676;SDS011;60755;51.374;10.662;2022-12-18T10:53:29;44.00;;;20.17;;
72676;SDS011;60755;51.374;10.662;2022-12-18T10:55:59;65.67;;;26.73;;
72676;SDS011;60755;51.374;10.662;2022-12-18T10:58:27;21.50;;;12.97;;
72676;SDS011;60755;51.374;10.662;2022-12-18T11:01:04;28.47;;;17.13;;
72676;SDS011;60755;51.374;10.662;2022-12-18T11:03:35;25.50;;;16.33;;
72676;SDS011;60755;51.374;10.662;2022-12-18T11:06:07;29.13;;;15.90;;
72676;SDS011;60755;51.374;10.662;2022-12-18T11:08:37;33.90;;;15.50;;
72676;SDS011;60755;51.374;10.662;2022-12-18T11:11:14;40.10;;;18.83;;
72676;SDS011;60755;51.374;10.662;2022-12-18T11:13:48;28.03;;;15.30;;
72676;SDS011;60755;51.374;10.662;2022-12-18T11:16:24;27.97;;;14.33;;
72676;SDS011;60755;51.374;10.662;2022-12-18T11:18:52;90.53;;;41.87;;
72676;SDS011;60755;51.374;10.662;2022-12-18T11:21:19;27.87;;;15.23;;
72676;SDS011;60755;51.374;10.662;2022-12-18T11:23:47;26.80;;;14.00;;
72676;SDS011;60755;51.374;10.662;2022-12-18T11:26:18;25.80;;;13.93;;
72676;SDS011;60755;51.374;10.662;2022-12-18T11:28:48;27.77;;;14.47;;
72676;SDS011;60755;51.374;10.662;2022-12-18T11:31:21;31.77;;;17.53;;
72676;SDS011;60755;51.374;10.662;2022-12-18T11:33:52;38.07;;;18.27;;
72676;SDS011;60755;51.374;10.662;2022-12-18T11:36:36;30.17;;;15.63;;
72676;SDS011;60755;51.374;10.662;2022-12-18T11:39:10;26.90;;;14.43;;
72676;SDS011;60755;51.374;10.662;2022-12-18T11:41:47;22.50;;;13.17;;
72676;SDS011;60755;51.374;10.662;2022-12-18T11:44:39;23.60;;;12.73;;
72676;SDS011;60755;51.374;10.662;2022-12-18T11:47:13;18.27;;;11.00;;
72676;SDS011;60755;51.374;10.662;2022-12-18T11:49:48;28.57;;;16.57;;
72676;SDS011;60755;51.374;10.662;2022-12-18T11:52:18;46.80;;;23.67;;
72676;SDS011;60755;51.374;10.662;2022-12-18T11:54:50;34.13;;;19.07;;
72676;SDS011;60755;51.374;10.662;2022-12-18T11:57:23;18.00;;;12.23;;
72676;SDS011;60755;51.374;10.662;2022-12-18T12:00:01;22.13;;;13.87;;
72676;SDS011;60755;51.374;10.662;2022-12-18T12:02:40;18.03;;;11.50;;
72676;SDS011;60755;51.374;10.662;2022-12-18T12:05:18;19.67;;;12.43;;
72676;SDS011;60755;51.374;10.662;2022-12-18T12:07:56;21.93;;;12.60;;
72676;SDS011;60755;51.374;10.662;2022-12-18T12:10:36;19.53;;;11.77;;
72676;SDS011;60755;51.374;10.662;2022-12-18T12:13:18;19.27;;;11.00;;
72676;SDS011;60755;51.374;10.662;2022-12-18T12:15:54;15.43;;;10.07;;
72676;SDS011;60755;51.374;10.662;2022-12-18T12:18:34;17.50;;;9.40;;
72676;SDS011;60755;51.374;10.662;2022-12-18T12:21:11;15.03;;;8.27;;
72676;SDS011;60755;51.374;10.662;2022-12-18T12:23:48;18.83;;;10.53;;
72676;SDS011;60755;51.374;10.662;2022-12-18T12:26:23;13.63;;;8.47;;
72676;SDS011;60755;51.374;10.662;2022-12-18T12:29:01;12.00;;;8.40;;
72676;SDS011;60755;51.374;10.662;2022-12-18T12:31:45;9.37;;;6.90;;
72676;SDS011;60755;51.374;10.662;2022-12-18T12:34:22;15.07;;;7.83;;
72676;SDS011;60755;51.374;10.662;2022-12-18T12:36:58;12.10;;;7.73;;
72676;SDS011;60755;51.374;10.662;2022-12-18T12:39:35;15.57;;;7.13;;
72676;SDS011;60755;51.374;10.662;2022-12-18T12:42:05;10.57;;;7.23;;
72676;SDS011;60755;51.374;10.662;2022-12-18T12:45:00;17.73;;;10.00;;
72676;SDS011;60755;51.374;10.662;2022-12-18T12:47:31;12.27;;;7.50;;
72676;SDS011;60755;51.374;10.662;2022-12-18T12:50:03;13.77;;;8.97;;
72676;SDS011;60755;51.374;10.662;2022-12-18T12:52:34;20.60;;;13.40;;
72676;SDS011;60755;51.374;10.662;2022-12-18T12:55:11;14.80;;;8.50;;
72676;SDS011;60755;51.374;10.662;2022-12-18T12:57:43;17.37;;;10.97;;
72676;SDS011;60755;51.374;10.662;2022-12-18T13:00:16;31.60;;;19.17;;
72676;SDS011;60755;51.374;10.662;2022-12-18T13:02:47;11.40;;;8.07;;
72676;SDS011;60755;51.374;10.662;2022-12-18T13:05:20;9.70;;;7.10;;
72676;SDS011;60755;51.374;10.662;2022-12-18T13:07:53;13.17;;;7.17;;
72676;SDS011;60755;51.374;10.662;2022-12-18T13:10:23;12.07;;;7.27;;
72676;SDS011;60755;51.374;10.662;2022-12-18T13:13:09;10.90;;;6.50;;
72676;SDS011;60755;51.374;10.662;2022-12-18T13:15:39;14.50;;;8.87;;
72676;SDS011;60755;51.374;10.662;2022-12-18T13:18:13;13.60;;;8.60;;
72676;SDS011;60755;51.374;10.662;2022-12-18T13:20:43;12.23;;;7.67;;
72676;SDS011;60755;51.374;10.662;2022-12-18T13:26:00;13.50;;;8.43;;
72676;SDS011;60755;51.374;10.662;2022-12-18T13:28:57;16.50;;;10.17;;
72676;SDS011;60755;51.374;10.662;2022-12-18T13:34:35;18.53;;;11.10;;
72676;SDS011;60755;51.374;10.662;2022-12-18T13:46:19;15.20;;;8.70;;
72676;SDS011;60755;51.374;10.662;2022-12-18T13:48:52;14.73;;;9.23;;
72676;SDS011;60755;51.374;10.662;2022-12-18T13:51:24;20.20;;;10.77;;
72676;SDS011;60755;51.374;10.662;2022-12-18T13:53:53;18.13;;;9.60;;
72676;SDS011;60755;51.374;10.662;2022-12-18T13:56:24;19.70;;;10.30;;
72676;SDS011;60755;51.374;10.662;2022-12-18T13:59:10;14.93;;;9.97;;
72676;SDS011;60755;51.374;10.662;2022-12-18T14:01:47;19.20;;;10.40;;
72676;SDS011;60755;51.374;10.662;2022-12-18T14:04:19;28.87;;;14.30;;
72676;SDS011;60755;51.374;10.662;2022-12-18T14:06:53;17.00;;;10.13;;
72676;SDS011;60755;51.374;10.662;2022-12-18T14:09:25;19.03;;;11.10;;
72676;SDS011;60755;51.374;10.662;2022-12-18T14:11:54;16.07;;;10.80;;
72676;SDS011;60755;51.374;10.662;2022-12-18T14:14:44;17.87;;;11.10;;
72676;SDS011;60755;51.374;10.662;2022-12-18T14:17:13;16.67;;;10.20;;
72676;SDS011;60755;51.374;10.662;2022-12-18T14:19:43;15.80;;;9.60;;
72676;SDS011;60755;51.374;10.662;2022-12-18T14:22:17;17.97;;;10.23;;
72676;SDS011;60755;51.374;10.662;2022-12-18T14:24:47;16.00;;;9.37;;
72676;SDS011;60755;51.374;10.662;2022-12-18T14:27:31;16.87;;;10.00;;
72676;SDS011;60755;51.374;10.662;2022-12-18T14:29:58;19.97;;;10.67;;
72676;SDS011;60755;51.374;10.662;2022-12-18T14:32:25;16.73;;;10.90;;
72676;SDS011;60755;51.374;10.662;2022-12-18T14:34:53;16.70;;;10.10;;
72676;SDS011;60755;51.374;10.662;2022-12-18T14:37:22;18.53;;;9.80;;
72676;SDS011;60755;51.374;10.662;2022-12-18T14:39:53;14.70;;;9.27;;
72676;SDS011;60755;51.374;10.662;2022-12-18T14:42:22;16.63;;;9.67;;
72676;SDS011;60755;51.374;10.662;2022-12-18T14:47:54;28.40;;;13.97;;
72676;SDS011;60755;51.374;10.662;2022-12-18T14:50:21;16.97;;;11.13;;
72676;SDS011;60755;51.374;10.662;2022-12-18T14:52:50;16.93;;;10.37;;